Time;durP1;ratioP1;P1;durP2;ratioP2;P2;SDS_P1;SDS_P2;PMS_P1;PMS_P2;Temp;Humidity;BMP_temperature;BMP_pressure;BME280_temperature;BME280_humidity;BME280_pressure;Samples;Min_cycle;Max_cycle;Signal;HPM_P1;HPM_P2
2023/03/14 00:00:10;;;;;;;1.6;1.5;;;;;;;12.21;64.15234;922.3179;;;;
2023/03/14 00:02:40;;;;;;;1.5;1.1;;;;;;;12.18;64.32031;922.3281;;;;
2023/03/14 00:05:06;;;;;;;1.7;1.4;;;;;;;12.18;64.71973;922.4519;;;;
2023/03/14 00:07:37;;;;;;;2.4;1.6;;;;;;;12.14;65.11523;922.515;;;;
2023/03/14 00:09:59;;;;;;;1.6;1.4;;;;;;;12.14;65.37891;922.5061;;;;
2023/03/14 00:12:26;;;;;;;2.3;1.3;;;;;;;12.06;66.14648;922.5391;;;;
2023/03/14 00:14:55;;;;;;;1.5;1.3;;;;;;;11.92;67.47754;922.5385;;;;
2023/03/14 00:17:21;;;;;;;1.5;1.4;;;;;;;11.83;68.75684;922.5939;;;;
2023/03/14 00:19:46;;;;;;;1.7;1.2;;;;;;;11.76;69.61426;922.5661;;;;
2023/03/14 00:22:11;;;;;;;1.5;1.3;;;;;;;11.72;70.16992;922.625;;;;
2023/03/14 00:24:42;;;;;;;1.8;1.4;;;;;;;11.69;70.79297;922.6091;;;;
2023/03/14 00:27:10;;;;;;;1.8;1.3;;;;;;;11.64;71.48438;922.6292;;;;
2023/03/14 00:29:46;;;;;;;2;1.5;;;;;;;11.66;71.75098;922.7419;;;;
2023/03/14 00:32:26;;;;;;;2.6;1.3;;;;;;;11.65;72.01367;922.8209;;;;
2023/03/14 00:34:56;;;;;;;1.8;1.2;;;;;;;11.6;72.7832;922.9302;;;;
2023/03/14 00:37:22;;;;;;;1.5;1.3;;;;;;;11.62;73.05078;923.1038;;;;
2023/03/14 00:39:56;;;;;;;1.6;1.2;;;;;;;11.56;73.75;923.04;;;;
2023/03/14 00:42:21;;;;;;;1.7;1.5;;;;;;;11.42;74.67676;922.9861;;;;
2023/03/14 00:44:47;;;;;;;1.3;1.2;;;;;;;11.36;75.38574;923.0244;;;;
2023/03/14 00:50:40;;;;;;;2.2;1.2;;;;;;;11.33;75.90625;923.2344;;;;
2023/03/14 00:53:08;;;;;;;1.8;1.4;;;;;;;11.32;76.07617;923.3128;;;;
2023/03/14 00:55:34;;;;;;;2.5;1.4;;;;;;;11.37;75.91406;923.3127;;;;
2023/03/14 00:58:02;;;;;;;2.5;1.5;;;;;;;11.41;75.875;923.3734;;;;
2023/03/14 01:00:27;;;;;;;1.5;1.2;;;;;;;11.48;75.8418;923.334;;;;
2023/03/14 01:02:55;;;;;;;1.9;1.2;;;;;;;11.53;75.86035;923.3133;;;;
2023/03/14 01:05:23;;;;;;;1.7;1.2;;;;;;;11.51;76.15527;923.4316;;;;
2023/03/14 01:07:48;;;;;;;1.8;1.2;;;;;;;11.59;76.02051;923.5154;;;;
2023/03/14 01:16:42;;;;;;;1.4;1.1;;;;;;;11.65;76.17871;923.5075;;;;
2023/03/14 01:20:31;;;;;;;1.4;1.1;;;;;;;11.5;76.85156;923.3855;;;;
2023/03/14 01:22:49;;;;;;;1.1;1;;;;;;;11.58;76.72852;923.4288;;;;
2023/03/14 01:25:19;;;;;;;1.1;1;;;;;;;11.66;76.58105;923.4172;;;;
2023/03/14 01:27:48;;;;;;;1.1;1;;;;;;;11.74;76.38965;923.4794;;;;
2023/03/14 01:30:14;;;;;;;5;1.4;;;;;;;11.81;76.73438;923.4816;;;;
2023/03/14 01:32:41;;;;;;;1.1;1;;;;;;;11.77;77.12891;923.3647;;;;
2023/03/14 01:35:09;;;;;;;1.3;1.1;;;;;;;11.83;77.40137;923.3428;;;;
2023/03/14 01:37:37;;;;;;;1.2;1.1;;;;;;;11.8;78.41602;923.4196;;;;
2023/03/14 01:40:03;;;;;;;1.2;1.1;;;;;;;11.73;79.87012;923.4141;;;;
2023/03/14 01:42:27;;;;;;;1.1;1;;;;;;;11.45;81.50977;923.463;;;;
2023/03/14 01:44:52;;;;;;;1.4;1.1;;;;;;;11.27;83.2168;923.465;;;;
2023/03/14 01:47:19;;;;;;;2;1;;;;;;;11.23;84.11328;923.4967;;;;
2023/03/14 01:49:44;;;;;;;2.7;1.1;;;;;;;11.16;84.91113;923.4977;;;;
2023/03/14 01:52:09;;;;;;;2;1.1;;;;;;;11.24;85.0293;923.448;;;;
2023/03/14 01:54:34;;;;;;;1.5;1.2;;;;;;;11.18;85.90723;923.4345;;;;
2023/03/14 01:56:59;;;;;;;2;1.4;;;;;;;10.99;86.4541;923.5058;;;;
2023/03/14 01:59:24;;;;;;;1.3;1.2;;;;;;;10.93;87.88184;923.4621;;;;
2023/03/14 02:01:49;;;;;;;1.2;1;;;;;;;10.88;88.49902;923.4637;;;;
2023/03/14 02:04:15;;;;;;;1.8;1.2;;;;;;;10.88;88.92383;923.498;;;;
2023/03/14 02:06:42;;;;;;;1.3;1.2;;;;;;;10.89;89.68945;923.5608;;;;
2023/03/14 02:09:07;;;;;;;2.3;1.2;;;;;;;10.9;90;923.6283;;;;
2023/03/14 02:11:32;;;;;;;1.2;1.1;;;;;;;10.86;89.86621;923.6879;;;;
2023/03/14 02:13:59;;;;;;;2.3;1.2;;;;;;;10.8;88.99902;923.8078;;;;
2023/03/14 02:16:26;;;;;;;0.7;0.7;;;;;;;10.7;88.82813;923.8158;;;;
2023/03/14 02:18:51;;;;;;;2.2;1;;;;;;;10.7;89.45605;923.8405;;;;
2023/03/14 02:21:16;;;;;;;1.5;1;;;;;;;10.58;91.20117;923.8427;;;;
2023/03/14 02:23:42;;;;;;;1.3;1.2;;;;;;;10.35;92.10156;923.8541;;;;
2023/03/14 02:26:07;;;;;;;3.1;1.2;;;;;;;10.14;93.03809;923.8483;;;;
2023/03/14 02:28:32;;;;;;;2;1.1;;;;;;;10.07;92.72559;923.7944;;;;
2023/03/14 02:30:58;;;;;;;1.2;1.1;;;;;;;10;91.35352;923.8242;;;;
2023/03/14 02:33:23;;;;;;;1.2;0.9;;;;;;;10.12;90.67285;923.8939;;;;
2023/03/14 02:35:52;;;;;;;1.5;0.9;;;;;;;10.22;90.30566;923.7947;;;;
2023/03/14 02:38:18;;;;;;;1.1;0.7;;;;;;;10.21;89.14941;923.9487;;;;
2023/03/14 02:40:45;;;;;;;0.9;0.5;;;;;;;10.16;88.8877;924.1464;;;;
2023/03/14 02:43:10;;;;;;;1.6;0.6;;;;;;;10.23;89.72363;924.2598;;;;
2023/03/14 02:45:39;;;;;;;0.4;0.4;;;;;;;10.27;87.96484;924.3301;;;;
2023/03/14 02:48:04;;;;;;;1.1;0.6;;;;;;;10.29;87.06543;924.2408;;;;
2023/03/14 02:50:33;;;;;;;0.6;0.4;;;;;;;10.28;87.4873;924.2258;;;;
2023/03/14 02:52:58;;;;;;;0.6;0.5;;;;;;;10.09;89.13672;924.257;;;;
2023/03/14 02:55:27;;;;;;;0.6;0.5;;;;;;;10.11;89.1748;924.2631;;;;
2023/03/14 02:57:53;;;;;;;1;0.5;;;;;;;9.88;87.45215;924.1286;;;;
2023/03/14 03:00:20;;;;;;;0.3;0.3;;;;;;;9.76;87.53125;923.9771;;;;
2023/03/14 03:02:45;;;;;;;0.2;0.2;;;;;;;9.53;87.20996;923.5715;;;;
2023/03/14 03:05:13;;;;;;;0.3;0.2;;;;;;;9.43;86.96289;923.3826;;;;
2023/03/14 03:07:38;;;;;;;0.3;0.3;;;;;;;9.48;89.84375;923.2988;;;;
2023/03/14 03:10:06;;;;;;;0.5;0.3;;;;;;;9.4;92.06836;923.0897;;;;
2023/03/14 03:12:31;;;;;;;0.5;0.4;;;;;;;9.41;91.49121;923.1994;;;;
2023/03/14 03:14:59;;;;;;;1.2;0.4;;;;;;;9.48;91.56348;923.1033;;;;
2023/03/14 03:17:24;;;;;;;0.7;0.4;;;;;;;9.59;91.15332;923.0544;;;;
2023/03/14 03:19:49;;;;;;;1.3;0.7;;;;;;;9.63;91.45703;922.9652;;;;
2023/03/14 03:22:16;;;;;;;0.7;0.4;;;;;;;9.57;91.39844;923.0244;;;;
2023/03/14 03:24:41;;;;;;;0.4;0.4;;;;;;;9.57;91.89941;923.0483;;;;
2023/03/14 03:27:08;;;;;;;1.2;0.8;;;;;;;9.58;91.86914;922.9297;;;;
2023/03/14 03:29:35;;;;;;;1.4;0.5;;;;;;;9.62;92.02539;922.9494;;;;
2023/03/14 03:32:00;;;;;;;0.8;0.6;;;;;;;9.62;91.56934;923.0059;;;;
2023/03/14 03:34:26;;;;;;;0.7;0.6;;;;;;;9.65;92.04004;923.1057;;;;
2023/03/14 03:36:51;;;;;;;0.5;0.5;;;;;;;9.67;91.94336;923.0903;;;;
2023/03/14 03:39:21;;;;;;;0.8;0.6;;;;;;;9.55;91.67969;923.1931;;;;
2023/03/14 03:41:51;;;;;;;1;0.6;;;;;;;9.32;93.08887;923.1778;;;;
2023/03/14 03:44:16;;;;;;;1.4;0.5;;;;;;;9.22;94.69336;923.2162;;;;
2023/03/14 03:46:43;;;;;;;1.1;0.8;;;;;;;9.08;94.64063;923.23;;;;
2023/03/14 03:49:08;;;;;;;1.2;0.4;;;;;;;8.97;94.74219;923.2997;;;;
2023/03/14 03:51:37;;;;;;;0.3;0.3;;;;;;;8.81;95.46973;923.3312;;;;
2023/03/14 03:54:06;;;;;;;0.4;0.4;;;;;;;8.74;95.78223;923.3229;;;;
2023/03/14 03:56:31;;;;;;;1.4;0.7;;;;;;;8.68;96.08789;923.2709;;;;
2023/03/14 03:58:57;;;;;;;2.1;0.5;;;;;;;8.66;96.16406;923.2783;;;;
2023/03/14 04:02:46;;;;;;;1.1;0.5;;;;;;;8.68;95.75879;923.1639;;;;
2023/03/14 04:05:11;;;;;;;1.7;0.4;;;;;;;8.62;96.08594;923.0446;;;;
2023/03/14 04:07:39;;;;;;;1.9;0.7;;;;;;;8.57;96.51855;922.9288;;;;
2023/03/14 04:10:10;;;;;;;1;0.7;;;;;;;8.6;96.46777;922.8596;;;;
2023/03/14 04:12:39;;;;;;;1.6;1;;;;;;;8.56;96.33496;922.9447;;;;
2023/03/14 04:15:04;;;;;;;0.8;0.8;;;;;;;8.46;96.44727;922.9337;;;;
2023/03/14 04:17:33;;;;;;;1.2;1.1;;;;;;;8.37;97.00586;923.0284;;;;
2023/03/14 04:20:01;;;;;;;1;0.6;;;;;;;8.28;96.16992;923.0906;;;;
2023/03/14 04:22:26;;;;;;;0.9;0.5;;;;;;;8.27;96.93848;923.1287;;;;
2023/03/14 04:24:54;;;;;;;1.8;0.8;;;;;;;8.29;97.5332;923.1247;;;;
2023/03/14 04:27:19;;;;;;;0.9;0.9;;;;;;;8.31;97.95898;923.1356;;;;
2023/03/14 04:29:47;;;;;;;2.9;0.8;;;;;;;8.23;97.32715;923.106;;;;
2023/03/14 04:32:12;;;;;;;1.4;1.4;;;;;;;8.15;98.37695;923.0165;;;;
2023/03/14 04:34:41;;;;;;;2;1.7;;;;;;;8.2;98.47949;922.8688;;;;
2023/03/14 04:37:06;;;;;;;1.2;1.2;;;;;;;8.27;98.2334;922.7791;;;;
2023/03/14 04:39:34;;;;;;;1.3;1.2;;;;;;;8.42;97.8252;922.7714;;;;
2023/03/14 04:41:59;;;;;;;0.9;0.9;;;;;;;8.45;97.67188;922.7584;;;;
2023/03/14 04:44:26;;;;;;;1;0.6;;;;;;;8.47;97.24414;922.5925;;;;
2023/03/14 04:46:51;;;;;;;0.5;0.4;;;;;;;8.33;96.97754;922.505;;;;
2023/03/14 04:49:16;;;;;;;0.5;0.4;;;;;;;8.36;95.43848;922.5217;;;;
2023/03/14 04:51:41;;;;;;;0.8;0.5;;;;;;;8.3;96.53711;922.3657;;;;
2023/03/14 04:54:10;;;;;;;0.9;0.7;;;;;;;8.33;97.03223;922.2291;;;;
2023/03/14 04:56:36;;;;;;;1.9;0.9;;;;;;;8.28;97.46289;922.1256;;;;
2023/03/14 04:59:00;;;;;;;1.4;0.7;;;;;;;8.36;97.06055;922.0174;;;;
2023/03/14 05:01:26;;;;;;;1.1;0.9;;;;;;;8.39;96.3418;921.9069;;;;
2023/03/14 05:03:51;;;;;;;0.9;0.5;;;;;;;8.31;95.63965;921.84;;;;
2023/03/14 05:06:18;;;;;;;0.8;0.8;;;;;;;8.26;96.06152;921.9046;;;;
2023/03/14 05:08:43;;;;;;;1.1;0.5;;;;;;;8.25;96.84375;921.8047;;;;
2023/03/14 05:11:08;;;;;;;1.7;0.3;;;;;;;8.19;96.47656;921.8318;;;;
2023/03/14 05:13:33;;;;;;;1.7;0.3;;;;;;;8.1;96.84473;921.9025;;;;
2023/03/14 05:16:04;;;;;;;0.4;0.3;;;;;;;8.01;97.11719;921.8514;;;;
2023/03/14 05:18:29;;;;;;;0.3;0.3;;;;;;;8.06;96.73242;921.7808;;;;
2023/03/14 05:20:56;;;;;;;0.9;0.3;;;;;;;8.15;95.43555;921.6476;;;;
2023/03/14 05:23:21;;;;;;;0.2;0.2;;;;;;;8.25;94.92383;921.5733;;;;
2023/03/14 05:25:46;;;;;;;0.8;0.4;;;;;;;8.28;94.2959;921.5516;;;;
2023/03/14 05:28:15;;;;;;;1.1;0.3;;;;;;;8.18;96.11328;921.4578;;;;
2023/03/14 05:30:40;;;;;;;0.7;0.5;;;;;;;8.12;96.72363;921.6082;;;;
2023/03/14 05:33:09;;;;;;;1.2;0.6;;;;;;;8.05;96.75488;921.5382;;;;
2023/03/14 05:35:34;;;;;;;10.2;5.8;;;;;;;8.06;97.1416;921.5691;;;;
2023/03/14 05:38:04;;;;;;;14.7;8.3;;;;;;;8.09;96.86328;921.4903;;;;
2023/03/14 05:40:29;;;;;;;1.7;1;;;;;;;8.01;97.4375;921.4387;;;;
2023/03/14 05:42:58;;;;;;;1.2;0.6;;;;;;;8.01;97.90234;921.5251;;;;
2023/03/14 05:45:28;;;;;;;1.1;0.5;;;;;;;7.96;97.91309;921.5181;;;;
2023/03/14 05:47:53;;;;;;;1;0.5;;;;;;;7.85;98.3877;921.4889;;;;
2023/03/14 05:50:20;;;;;;;1.5;0.7;;;;;;;7.87;98.67578;921.5117;;;;
2023/03/14 05:52:45;;;;;;;1.6;0.8;;;;;;;7.88;98.53223;921.5029;;;;
2023/03/14 05:55:11;;;;;;;3.3;2;;;;;;;7.94;98.40625;921.3899;;;;
2023/03/14 05:57:36;;;;;;;5;3.4;;;;;;;8;98.01465;921.2776;;;;
2023/03/14 06:00:02;;;;;;;3.2;2.3;;;;;;;8.01;98.00293;921.2919;;;;
2023/03/14 06:02:27;;;;;;;4.3;1.8;;;;;;;8.06;97.57227;921.1498;;;;
2023/03/14 06:05:30;;;;;;;1.6;1.1;;;;;;;8.15;97.03418;921.0301;;;;
2023/03/14 06:07:58;;;;;;;1.9;1;;;;;;;8.27;96.39258;920.9872;;;;
2023/03/14 06:10:23;;;;;;;1.2;1.1;;;;;;;8.41;95.3916;920.9419;;;;
2023/03/14 06:12:52;;;;;;;2.9;1.5;;;;;;;8.52;95.01758;920.8661;;;;
2023/03/14 06:15:17;;;;;;;2;1.7;;;;;;;8.47;94.91504;920.858;;;;
2023/03/14 06:17:42;;;;;;;1.8;1.5;;;;;;;8.35;95.06152;920.943;;;;
2023/03/14 06:20:07;;;;;;;1.2;1.1;;;;;;;8.19;95.36621;920.883;;;;
2023/03/14 06:22:32;;;;;;;2.3;1.1;;;;;;;8.16;95.90527;920.9403;;;;
2023/03/14 06:25:00;;;;;;;2.6;1.6;;;;;;;8.22;96.04199;921.0796;;;;
2023/03/14 06:27:25;;;;;;;3;1.6;;;;;;;8.23;96.08008;921.1889;;;;
2023/03/14 06:29:54;;;;;;;3;1.4;;;;;;;8.37;95.79004;921.3013;;;;
2023/03/14 06:32:20;;;;;;;2.4;1.4;;;;;;;8.49;95.33008;921.2955;;;;
2023/03/14 06:34:44;;;;;;;1.4;1.1;;;;;;;8.46;95.02637;921.3205;;;;
2023/03/14 06:37:10;;;;;;;2.9;1.2;;;;;;;8.48;95.2373;921.3139;;;;
2023/03/14 06:39:37;;;;;;;1.3;0.9;;;;;;;8.48;95.32813;921.2822;;;;
2023/03/14 06:42:01;;;;;;;1.6;0.8;;;;;;;8.48;95.29395;921.3258;;;;
2023/03/14 06:44:29;;;;;;;1.7;1.2;;;;;;;8.51;95.2207;921.3254;;;;
2023/03/14 06:46:54;;;;;;;0.8;0.8;;;;;;;8.45;95.09277;921.3055;;;;
2023/03/14 06:49:21;;;;;;;0.9;0.7;;;;;;;8.56;95.04883;921.3607;;;;
2023/03/14 06:51:46;;;;;;;1.4;0.9;;;;;;;8.62;94.61914;921.365;;;;
2023/03/14 06:54:12;;;;;;;1.9;1.1;;;;;;;8.66;94.23145;921.4288;;;;
2023/03/14 06:56:37;;;;;;;1.4;1;;;;;;;8.55;93.89844;921.3647;;;;
2023/03/14 06:59:05;;;;;;;1.3;0.8;;;;;;;8.39;94.10352;921.5461;;;;
2023/03/14 07:01:30;;;;;;;0.9;0.6;;;;;;;8.32;93.41797;921.5219;;;;
2023/03/14 07:03:56;;;;;;;1.4;0.7;;;;;;;8.06;93.34961;921.5319;;;;
2023/03/14 07:06:21;;;;;;;0.6;0.6;;;;;;;7.97;95.2002;921.4174;;;;
2023/03/14 07:08:48;;;;;;;5;2.1;;;;;;;8.09;95.21973;921.4427;;;;
2023/03/14 07:11:13;;;;;;;2.4;1.5;;;;;;;8.2;95.21875;921.4537;;;;
2023/03/14 07:13:39;;;;;;;2.5;1.9;;;;;;;8.26;95.37109;921.4796;;;;
2023/03/14 07:16:05;;;;;;;2.9;1.3;;;;;;;8.26;94.92773;921.4796;;;;
2023/03/14 07:18:31;;;;;;;1.2;1.1;;;;;;;8.37;93.82715;921.4106;;;;
2023/03/14 07:20:56;;;;;;;1.8;1.2;;;;;;;8.36;93.10938;921.4297;;;;
2023/03/14 07:23:21;;;;;;;1.4;1;;;;;;;8.53;93.39453;921.4832;;;;
2023/03/14 07:25:48;;;;;;;1.3;1.2;;;;;;;8.52;90.82422;921.5506;;;;
2023/03/14 07:28:13;;;;;;;2.1;1.6;;;;;;;8.38;92.65918;921.5572;;;;
2023/03/14 07:30:40;;;;;;;1.3;1.2;;;;;;;8.33;92.8877;921.536;;;;
2023/03/14 07:33:06;;;;;;;1.3;1.2;;;;;;;8.34;93.6377;921.4673;;;;
2023/03/14 07:35:35;;;;;;;1.6;1;;;;;;;8.45;92.78613;921.4117;;;;
2023/03/14 07:38:00;;;;;;;0.7;0.7;;;;;;;8.32;91.92969;921.4378;;;;
2023/03/14 07:40:28;;;;;;;0.7;0.7;;;;;;;8.17;92.90918;921.4666;;;;
2023/03/14 07:42:55;;;;;;;1.3;0.7;;;;;;;8.19;92.73145;921.5076;;;;
2023/03/14 07:45:24;;;;;;;2.3;1.4;;;;;;;8.32;93.69043;921.51;;;;
2023/03/14 07:47:57;;;;;;;3.1;2.2;;;;;;;8.37;93.79297;921.5168;;;;
2023/03/14 07:50:19;;;;;;;8.8;5.4;;;;;;;8.44;94.14746;921.5547;;;;
2023/03/14 07:52:50;;;;;;;3.8;2.7;;;;;;;8.48;93.72559;921.5137;;;;
2023/03/14 07:55:18;;;;;;;1.3;1;;;;;;;8.39;94.24023;921.4811;;;;
2023/03/14 07:57:48;;;;;;;4;2.2;;;;;;;8.4;94.82129;921.5935;;;;
2023/03/14 08:00:13;;;;;;;1.4;1;;;;;;;8.44;94.14746;921.5602;;;;
2023/03/14 08:02:38;;;;;;;0.8;0.6;;;;;;;8.31;93.59961;921.5806;;;;
2023/03/14 08:05:05;;;;;;;0.9;0.7;;;;;;;8.21;93.76855;921.5712;;;;
2023/03/14 08:07:30;;;;;;;0.8;0.6;;;;;;;8.37;93.60938;921.5542;;;;
2023/03/14 08:09:57;;;;;;;0.9;0.7;;;;;;;8.42;93.72363;921.5667;;;;
2023/03/14 08:12:22;;;;;;;0.9;0.9;;;;;;;8.37;93.72266;921.5535;;;;
2023/03/14 08:14:48;;;;;;;1.1;0.9;;;;;;;8.3;94.53809;921.5783;;;;
2023/03/14 08:17:13;;;;;;;2.8;1.5;;;;;;;8.29;94.64746;921.4928;;;;
2023/03/14 08:19:41;;;;;;;2.2;1.2;;;;;;;8.31;94.7334;921.6234;;;;
2023/03/14 08:22:06;;;;;;;1.9;1.3;;;;;;;8.25;94.51465;921.6193;;;;
2023/03/14 08:24:33;;;;;;;3.1;1.6;;;;;;;8.33;95.14648;921.6716;;;;
2023/03/14 08:26:58;;;;;;;5.6;2.3;;;;;;;8.41;94.60742;921.6406;;;;
2023/03/14 08:29:24;;;;;;;2.8;1.8;;;;;;;8.41;94.79883;921.6181;;;;
2023/03/14 08:31:50;;;;;;;1.8;1.7;;;;;;;8.49;95.08008;921.6057;;;;
2023/03/14 08:34:16;;;;;;;1.5;1.4;;;;;;;8.53;94.82617;921.6458;;;;
2023/03/14 08:36:41;;;;;;;1.9;1.4;;;;;;;8.5;94.625;921.7143;;;;
2023/03/14 08:39:13;;;;;;;1.3;1.2;;;;;;;8.37;94.99512;921.712;;;;
2023/03/14 08:41:43;;;;;;;1.2;0.9;;;;;;;8.24;96.06934;921.7422;;;;
2023/03/14 08:44:06;;;;;;;0.8;0.8;;;;;;;8.31;96.19629;921.8289;;;;
2023/03/14 08:46:33;;;;;;;3.6;1.5;;;;;;;8.42;96.38184;921.899;;;;
2023/03/14 08:48:58;;;;;;;1.3;0.9;;;;;;;8.49;95.61426;921.8879;;;;
2023/03/14 08:51:26;;;;;;;0.8;0.8;;;;;;;8.45;94.01367;921.9344;;;;
2023/03/14 08:53:51;;;;;;;1.9;0.8;;;;;;;8.36;94.06348;921.9317;;;;
2023/03/14 08:56:51;;;;;;;1.5;0.6;;;;;;;8.3;93.71875;921.9455;;;;
2023/03/14 08:59:20;;;;;;;1.4;1.1;;;;;;;8.3;95.50391;921.9811;;;;
2023/03/14 09:01:45;;;;;;;1.3;1.2;;;;;;;8.47;94.76758;922.0111;;;;
2023/03/14 09:04:11;;;;;;;1.7;0.8;;;;;;;8.47;94.38086;922.0223;;;;
2023/03/14 09:06:36;;;;;;;0.8;0.8;;;;;;;8.6;94.2627;922.0051;;;;
2023/03/14 09:09:02;;;;;;;1.5;0.8;;;;;;;8.73;93.08496;922.0256;;;;
2023/03/14 09:11:27;;;;;;;1.4;0.9;;;;;;;8.83;92.45801;921.9875;;;;
2023/03/14 09:13:53;;;;;;;0.6;0.6;;;;;;;8.88;91.46875;922.0648;;;;
2023/03/14 09:16:18;;;;;;;0.7;0.7;;;;;;;8.89;92.09668;921.9846;;;;
2023/03/14 09:18:46;;;;;;;1.2;0.5;;;;;;;8.92;91.12402;922.0485;;;;
2023/03/14 09:21:12;;;;;;;0.6;0.6;;;;;;;9.12;90.69922;921.9926;;;;
2023/03/14 09:23:40;;;;;;;1.7;1;;;;;;;9.37;89.91016;921.9938;;;;
2023/03/14 09:26:04;;;;;;;1.5;1.1;;;;;;;9.38;87.9209;921.9992;;;;
2023/03/14 09:28:32;;;;;;;1.2;1.1;;;;;;;9.4;87.33105;922.0149;;;;
2023/03/14 09:30:57;;;;;;;1.6;1.2;;;;;;;9.55;89.0918;921.9919;;;;
2023/03/14 09:33:22;;;;;;;1.2;1.1;;;;;;;9.46;86.33008;921.9103;;;;
2023/03/14 09:35:51;;;;;;;1.1;1;;;;;;;9.48;88.21289;921.9054;;;;
2023/03/14 09:38:17;;;;;;;2.9;1.2;;;;;;;9.27;87.57813;921.7394;;;;
2023/03/14 09:40:44;;;;;;;1.7;0.8;;;;;;;9.24;89.81543;921.7333;;;;
2023/03/14 09:43:09;;;;;;;0.7;0.7;;;;;;;9.27;90.78906;921.7465;;;;
2023/03/14 09:45:36;;;;;;;2.7;1.7;;;;;;;9.26;90.50195;921.7061;;;;
2023/03/14 09:48:02;;;;;;;0.7;0.7;;;;;;;9.2;90.80957;921.7272;;;;
2023/03/14 09:50:27;;;;;;;0.8;0.8;;;;;;;9.1;90.32031;921.6418;;;;
2023/03/14 09:52:52;;;;;;;1.1;0.8;;;;;;;9.14;91.83203;921.6358;;;;
2023/03/14 09:55:17;;;;;;;1.5;1.2;;;;;;;8.98;91.55859;921.6518;;;;
2023/03/14 09:57:44;;;;;;;11;7.3;;;;;;;8.96;90.79297;921.6163;;;;
2023/03/14 10:00:13;;;;;;;2.7;1.7;;;;;;;9.5;89.74512;921.4888;;;;
2023/03/14 10:02:34;;;;;;;0.9;0.9;;;;;;;11.23;84.86426;921.4088;;;;
2023/03/14 10:05:00;;;;;;;1;0.5;;;;;;;11.92;75.43652;921.4316;;;;
2023/03/14 10:07:24;;;;;;;1.4;0.8;;;;;;;12.68;76.75;921.4797;;;;
2023/03/14 10:09:49;;;;;;;0.8;0.5;;;;;;;13.64;69.5957;921.4781;;;;
2023/03/14 10:12:16;;;;;;;0.6;0.5;;;;;;;13.71;69.36523;921.3448;;;;
2023/03/14 10:14:41;;;;;;;1;0.7;;;;;;;13.76;68.56836;921.36;;;;
2023/03/14 10:17:06;;;;;;;0.6;0.6;;;;;;;13.94;65.5459;921.3727;;;;
2023/03/14 10:19:32;;;;;;;0.5;0.5;;;;;;;14.87;66.63281;921.3256;;;;
2023/03/14 10:21:58;;;;;;;0.3;0.3;;;;;;;14.89;62.00977;921.462;;;;
2023/03/14 10:24:24;;;;;;;0.4;0.3;;;;;;;14.44;62.60352;921.4611;;;;
2023/03/14 10:26:49;;;;;;;1;0.4;;;;;;;14.79;63.99023;921.4163;;;;
2023/03/14 10:29:16;;;;;;;1.2;0.5;;;;;;;14.56;62.74707;921.5919;;;;
2023/03/14 10:31:40;;;;;;;0.4;0.4;;;;;;;14.69;61.77441;921.5608;;;;
2023/03/14 10:34:09;;;;;;;0.9;0.6;;;;;;;14.55;63.4502;921.552;;;;
2023/03/14 10:36:32;;;;;;;0.5;0.4;;;;;;;15.09;66.25098;921.5051;;;;
2023/03/14 10:38:57;;;;;;;0.2;0.2;;;;;;;15.71;58.82227;921.5055;;;;
2023/03/14 10:41:22;;;;;;;0.3;0.2;;;;;;;16.26;57.40527;921.3954;;;;
2023/03/14 10:43:47;;;;;;;0.4;0.4;;;;;;;15.45;59.04102;921.3998;;;;
2023/03/14 10:46:12;;;;;;;0.4;0.4;;;;;;;14.97;61.31836;921.3639;;;;
2023/03/14 10:48:41;;;;;;;0.3;0.3;;;;;;;16.12;61.44531;921.387;;;;
2023/03/14 10:51:05;;;;;;;0.4;0.4;;;;;;;16.69;57.125;921.3591;;;;
2023/03/14 10:53:32;;;;;;;0.3;0.3;;;;;;;15.49;56.47168;921.3536;;;;
2023/03/14 10:55:57;;;;;;;0.4;0.4;;;;;;;14.63;57.29492;921.3488;;;;
2023/03/14 10:58:26;;;;;;;0.4;0.3;;;;;;;13.83;63.4248;921.308;;;;
2023/03/14 11:00:54;;;;;;;0.6;0.6;;;;;;;14.34;62.51953;921.2453;;;;
2023/03/14 11:03:20;;;;;;;0.3;0.3;;;;;;;14.69;60.36914;921.2553;;;;
2023/03/14 11:05:44;;;;;;;0.6;0.3;;;;;;;15.17;62.11914;921.1738;;;;
2023/03/14 11:08:09;;;;;;;0.9;0.2;;;;;;;15.49;59.35938;921.2187;;;;
2023/03/14 11:10:34;;;;;;;0.4;0.4;;;;;;;15.23;57.86914;921.1813;;;;
2023/03/14 11:13:02;;;;;;;1.3;0.3;;;;;;;15.5;58.94434;921.1837;;;;
2023/03/14 11:15:26;;;;;;;0.7;0.7;;;;;;;15.54;60.99316;921.1223;;;;
2023/03/14 11:17:51;;;;;;;0.1;0.1;;;;;;;15.42;58.0459;921.177;;;;
2023/03/14 11:20:21;;;;;;;0.2;0.2;;;;;;;16.17;55.69141;921.1177;;;;
2023/03/14 11:22:46;;;;;;;0.2;0.2;;;;;;;16.17;53.65625;921.0414;;;;
2023/03/14 11:25:11;;;;;;;0.3;0.3;;;;;;;16.33;56.98535;921.0408;;;;
2023/03/14 11:27:36;;;;;;;0.3;0.2;;;;;;;17.15;57.10352;921.0748;;;;
2023/03/14 11:30:01;;;;;;;0.4;0.3;;;;;;;16.74;53.65625;921.0259;;;;
2023/03/14 11:32:27;;;;;;;1.4;0.3;;;;;;;15.86;56.49609;920.993;;;;
2023/03/14 11:34:52;;;;;;;0.2;0.2;;;;;;;15.49;57.48926;920.9707;;;;
2023/03/14 11:37:17;;;;;;;16.3;8.9;;;;;;;15.06;56.07129;920.932;;;;
2023/03/14 11:39:42;;;;;;;4.2;2.3;;;;;;;14.85;58.31445;920.9434;;;;
2023/03/14 11:42:07;;;;;;;0.6;0.4;;;;;;;14.72;58.54004;920.8969;;;;
2023/03/14 11:44:34;;;;;;;0.3;0.3;;;;;;;14.5;59.82422;920.8152;;;;
2023/03/14 11:47:00;;;;;;;1.1;0.3;;;;;;;14.05;61.62598;920.9084;;;;
2023/03/14 11:49:27;;;;;;;0.9;0.3;;;;;;;14.18;62.4043;920.9644;;;;
2023/03/14 11:51:52;;;;;;;6;2.3;;;;;;;14.68;65.30078;920.9978;;;;
2023/03/14 11:54:17;;;;;;;3;1.7;;;;;;;14.71;64.89063;921.0039;;;;
2023/03/14 11:56:42;;;;;;;0.9;0.7;;;;;;;14.09;66.07617;921.1058;;;;
2023/03/14 11:59:08;;;;;;;0.7;0.7;;;;;;;13.92;67.53418;921.0563;;;;
2023/03/14 12:01:33;;;;;;;0.7;0.6;;;;;;;13.9;67.54297;921.08;;;;
2023/03/14 12:03:58;;;;;;;1.1;0.7;;;;;;;14.01;68.21582;921.0359;;;;
2023/03/14 12:06:23;;;;;;;0.9;0.8;;;;;;;13.65;68.62891;921.1476;;;;
2023/03/14 12:08:51;;;;;;;1.2;0.4;;;;;;;13.54;69.30371;921.1064;;;;
2023/03/14 12:11:16;;;;;;;0.4;0.4;;;;;;;13.52;69.48438;921.1141;;;;
2023/03/14 12:13:41;;;;;;;0.3;0.3;;;;;;;13.2;69.36426;921.1309;;;;
2023/03/14 12:16:06;;;;;;;0.5;0.4;;;;;;;13.25;68.45313;920.9677;;;;
2023/03/14 12:18:31;;;;;;;0.8;0.3;;;;;;;13.07;68.97656;921.032;;;;
2023/03/14 12:20:58;;;;;;;0.5;0.4;;;;;;;13.14;71.76758;920.9956;;;;
2023/03/14 12:23:23;;;;;;;1.8;0.8;;;;;;;13.68;72.03906;920.9827;;;;
2023/03/14 12:25:48;;;;;;;0.3;0.3;;;;;;;13.92;66.29199;920.9644;;;;
2023/03/14 12:28:13;;;;;;;0.3;0.3;;;;;;;13.94;63.68359;920.9108;;;;
2023/03/14 12:30:38;;;;;;;0.4;0.4;;;;;;;13.94;64.59277;920.9388;;;;
2023/03/14 12:33:03;;;;;;;0.3;0.3;;;;;;;14.44;64.35352;920.9456;;;;
2023/03/14 12:35:35;;;;;;;0.5;0.5;;;;;;;14.62;64.86621;920.9629;;;;
2023/03/14 12:38:05;;;;;;;0.5;0.5;;;;;;;14.77;64.14941;920.9098;;;;
2023/03/14 12:40:30;;;;;;;0.8;0.5;;;;;;;14.97;62.30957;920.9185;;;;
2023/03/14 12:42:59;;;;;;;0.3;0.3;;;;;;;15.13;61.55859;920.9315;;;;
2023/03/14 12:45:24;;;;;;;0.9;0.5;;;;;;;15.55;61.74707;920.8723;;;;
2023/03/14 12:47:54;;;;;;;0.4;0.3;;;;;;;16.08;59.0918;920.8948;;;;
2023/03/14 12:50:22;;;;;;;2;0.5;;;;;;;15.92;59.70703;921.0154;;;;
2023/03/14 12:52:47;;;;;;;0.4;0.4;;;;;;;15.77;58.78516;920.9639;;;;
2023/03/14 12:55:12;;;;;;;0.4;0.3;;;;;;;15.94;58.7832;920.9081;;;;
2023/03/14 12:57:41;;;;;;;0.3;0.3;;;;;;;16.45;57.99414;920.9562;;;;
2023/03/14 13:00:07;;;;;;;0.3;0.3;;;;;;;16.09;58.08789;921.0628;;;;
2023/03/14 13:02:32;;;;;;;0.3;0.3;;;;;;;15.47;61.52637;921.0833;;;;
2023/03/14 13:04:58;;;;;;;0.4;0.4;;;;;;;14.63;64.49805;921.0733;;;;
2023/03/14 13:07:31;;;;;;;0.3;0.3;;;;;;;14.74;62.81934;921.1214;;;;
2023/03/14 13:09:56;;;;;;;0.3;0.3;;;;;;;14.78;62.08691;921.2436;;;;
2023/03/14 13:12:21;;;;;;;0.6;0.6;;;;;;;14.41;67.75977;921.3494;;;;
2023/03/14 13:14:46;;;;;;;0.5;0.5;;;;;;;13.75;68.77344;921.3957;;;;
2023/03/14 13:17:11;;;;;;;0.4;0.4;;;;;;;13.52;69.92188;921.4132;;;;
2023/03/14 13:19:36;;;;;;;0.8;0.4;;;;;;;13.35;72.40039;921.4985;;;;
2023/03/14 13:22:02;;;;;;;1;0.8;;;;;;;13.56;74.05664;921.5264;;;;
2023/03/14 13:24:28;;;;;;;1.3;0.9;;;;;;;13.69;75.43457;921.4509;;;;
2023/03/14 13:26:54;;;;;;;1.2;0.6;;;;;;;13.79;69.34375;921.4512;;;;
2023/03/14 13:29:17;;;;;;;0.8;0.7;;;;;;;13.66;74.51074;921.4799;;;;
2023/03/14 13:31:44;;;;;;;0.3;0.3;;;;;;;13.57;69.65234;921.4374;;;;
2023/03/14 13:34:09;;;;;;;0.5;0.2;;;;;;;13.59;69.25293;921.496;;;;
2023/03/14 13:36:35;;;;;;;0.7;0.3;;;;;;;13.11;65.62793;921.5518;;;;
2023/03/14 13:39:01;;;;;;;1.6;0.3;;;;;;;12.96;70.1416;921.6522;;;;
2023/03/14 13:41:25;;;;;;;0.5;0.3;;;;;;;12.93;70.21582;921.6587;;;;
2023/03/14 13:43:52;;;;;;;2.5;0.3;;;;;;;12.59;65.18359;921.7291;;;;
2023/03/14 13:46:17;;;;;;;0.2;0.2;;;;;;;12.39;68.28223;921.8376;;;;
2023/03/14 13:48:42;;;;;;;0.3;0.3;;;;;;;12.1;66.65625;921.8777;;;;
2023/03/14 13:51:08;;;;;;;0.1;0.1;;;;;;;11.76;68.64258;922.0286;;;;
2023/03/14 13:53:37;;;;;;;0.2;0.1;;;;;;;11.66;71.83203;922.1711;;;;
2023/03/14 13:56:02;;;;;;;0.1;0.1;;;;;;;11.47;73.49414;922.3253;;;;
2023/03/14 13:58:31;;;;;;;0.1;0.1;;;;;;;11.24;74.34766;922.4363;;;;
2023/03/14 14:00:56;;;;;;;0.1;0.1;;;;;;;11.08;76.60645;922.5854;;;;
2023/03/14 14:03:22;;;;;;;0.2;0.1;;;;;;;10.97;76.47168;922.5991;;;;
2023/03/14 14:05:47;;;;;;;0.7;0.2;;;;;;;10.7;75.875;922.7856;;;;
2023/03/14 14:08:17;;;;;;;0.1;0.1;;;;;;;10.62;79.04688;922.8045;;;;
2023/03/14 14:10:45;;;;;;;0.3;0.3;;;;;;;10.55;76.1582;922.9461;;;;
2023/03/14 14:13:11;;;;;;;0.1;0.1;;;;;;;10.48;75.33496;923.0316;;;;
2023/03/14 14:15:39;;;;;;;0.8;0.1;;;;;;;10.41;75.66504;923.1978;;;;
2023/03/14 14:18:06;;;;;;;0.9;0.1;;;;;;;10.16;77.18457;923.1267;;;;
2023/03/14 14:20:33;;;;;;;0.3;0.3;;;;;;;9.96;78.34668;923.2372;;;;
2023/03/14 14:23:01;;;;;;;1.2;0.4;;;;;;;9.88;79.97168;923.3711;;;;
2023/03/14 14:25:26;;;;;;;1;0.6;;;;;;;9.72;81.27734;923.5435;;;;
2023/03/14 14:27:52;;;;;;;0.8;0.5;;;;;;;9.67;83.3291;923.7126;;;;
2023/03/14 14:30:17;;;;;;;0.9;0.5;;;;;;;9.77;85.61621;923.8259;;;;
2023/03/14 14:32:45;;;;;;;0.3;0.3;;;;;;;9.88;82.37793;923.9593;;;;
2023/03/14 14:35:11;;;;;;;0.1;0.1;;;;;;;9.64;78.86914;923.9504;;;;
2023/03/14 14:37:36;;;;;;;0.7;0.2;;;;;;;9.49;77.53125;923.939;;;;